Time;durP1;ratioP1;P1;durP2;ratioP2;P2;SDS_P1;SDS_P2;PMS_P1;PMS_P2;Temp;Humidity;BMP_temperature;BMP_pressure;BME280_temperature;BME280_humidity;BME280_pressure;Samples;Min_cycle;Max_cycle;Signal;HPM_P1;HPM_P2
2020/12/11 00:01:01;;;;;;;;;;;;;;;-0.19;96.41;97811.09;5081276;28;19920;-80
2020/12/11 00:03:27;;;;;;;;;;;;;;;-0.05;95.88;97806.75;5080548;28;19927;-80
2020/12/11 00:05:52;;;;;;;;;;;;;;;-0.10;95.53;97803.44;5101116;28;19927;-80
2020/12/11 00:08:18;;;;;;;;;;;;;;;-0.22;96.68;97798.50;5099669;28;19929;-80
2020/12/11 00:10:44;;;;;;;;;;;;;;;-0.14;96.18;97801.78;5065900;28;19963;-80
2020/12/11 00:13:09;;;;;;;;;;;;;;;-0.05;95.58;97796.63;5081646;28;19912;-80
2020/12/11 00:15:35;;;;;;;;;;;;;;;-0.09;95.76;97801.72;5101395;28;19920;-80
2020/12/11 00:18:00;;;;;;;;;;;;;;;-0.14;96.32;97795.88;5100151;28;19916;-80
2020/12/11 00:20:25;;;;;;;;;;;;;;;0.06;95.55;97798.25;5073027;28;19920;-80
2020/12/11 00:22:51;;;;;;;;;;;;;;;-0.20;96.28;97791.72;5101422;28;19916;-80
2020/12/11 00:25:16;;;;;;;;;;;;;;;-0.13;96.32;97793.34;5064593;28;19931;-80
2020/12/11 00:27:41;;;;;;;;;;;;;;;-0.07;95.69;97783.19;5082966;28;19986;-80
2020/12/11 00:30:07;;;;;;;;;;;;;;;-0.16;95.91;97778.22;5100644;28;19926;-80
2020/12/11 00:32:34;;;;;;;;;;;;;;;-0.14;96.55;97766.34;5081635;28;20412;-80
2020/12/11 00:35:00;;;;;;;;;;;;;;;-0.13;96.32;97763.00;5081255;28;19930;-80
2020/12/11 00:37:25;;;;;;;;;;;;;;;-0.11;96.34;97741.03;5082739;28;19915;-80
2020/12/11 00:39:51;;;;;;;;;;;;;;;-0.07;95.91;97744.38;5082818;28;19920;-80
2020/12/11 00:42:20;;;;;;;;;;;;;;;-0.09;95.76;97743.53;5098639;28;19916;-80
2020/12/11 00:44:46;;;;;;;;;;;;;;;-0.16;96.06;97740.25;5082627;28;19924;-80
2020/12/11 00:47:11;;;;;;;;;;;;;;;-0.31;96.89;97737.84;5097793;28;19920;-80
2020/12/11 00:49:37;;;;;;;;;;;;;;;-0.21;96.50;97726.78;5078777;28;19920;-80
2020/12/11 00:52:02;;;;;;;;;;;;;;;-0.11;95.99;97725.84;5099768;28;19912;-80
2020/12/11 00:54:27;;;;;;;;;;;;;;;-0.20;96.25;97720.06;5081746;28;20364;-80
2020/12/11 00:56:53;;;;;;;;;;;;;;;-0.18;96.37;97719.19;5099646;28;19977;-80
2020/12/11 00:59:18;;;;;;;;;;;;;;;-0.17;96.27;97705.66;5083809;28;20304;-80
2020/12/11 01:01:43;;;;;;;;;;;;;;;-0.27;96.40;97711.69;5081737;28;19919;-80
2020/12/11 01:04:09;;;;;;;;;;;;;;;-0.25;96.23;97702.38;5075382;28;19916;-80
2020/12/11 01:06:34;;;;;;;;;;;;;;;-0.29;96.04;97690.63;5082836;28;19965;-80
2020/12/11 01:09:00;;;;;;;;;;;;;;;-0.28;96.73;97689.75;5073661;28;19962;-80
2020/12/11 01:11:25;;;;;;;;;;;;;;;-0.24;96.28;97691.41;5080947;28;19922;-80
2020/12/11 01:13:50;;;;;;;;;;;;;;;-0.17;95.90;97690.50;5100312;28;19912;-82
2020/12/11 01:16:16;;;;;;;;;;;;;;;-0.23;96.06;97682.94;5079325;28;19912;-82
2020/12/11 01:18:41;;;;;;;;;;;;;;;-0.22;96.14;97672.81;5097972;28;19914;-80
2020/12/11 01:21:06;;;;;;;;;;;;;;;-0.25;96.38;97672.00;5082960;28;19969;-80
2020/12/11 01:23:32;;;;;;;;;;;;;;;-0.21;96.20;97666.06;5094537;28;19972;-80
2020/12/11 01:25:57;;;;;;;;;;;;;;;0.03;94.96;97656.56;5098027;28;19916;-80
2020/12/11 01:28:22;;;;;;;;;;;;;;;-0.31;96.13;97652.69;5080630;28;19916;-80
2020/12/11 01:30:48;;;;;;;;;;;;;;;-0.01;95.39;97654.03;5079046;28;19920;-80
2020/12/11 01:33:13;;;;;;;;;;;;;;;-0.10;95.20;97643.19;5078962;28;19919;-80
2020/12/11 01:35:38;;;;;;;;;;;;;;;-0.20;95.83;97646.69;5098439;28;20040;-80
2020/12/11 01:38:04;;;;;;;;;;;;;;;-0.14;95.65;97646.59;5099198;28;19915;-80
2020/12/11 01:40:36;;;;;;;;;;;;;;;-0.07;95.25;97635.56;5082784;28;20339;-80
2020/12/11 01:43:02;;;;;;;;;;;;;;;-0.26;95.98;97633.22;5081401;28;20858;-80
2020/12/11 01:45:27;;;;;;;;;;;;;;;-0.31;96.55;97634.16;5099036;28;19987;-80
2020/12/11 01:47:52;;;;;;;;;;;;;;;-0.37;95.99;97622.38;5059190;28;19924;-80
2020/12/11 01:50:20;;;;;;;;;;;;;;;-0.26;96.32;97622.28;5069633;28;19917;-80
2020/12/11 01:52:50;;;;;;;;;;;;;;;-0.24;96.07;97618.03;5075429;28;19916;-80
2020/12/11 01:55:15;;;;;;;;;;;;;;;-0.18;95.76;97607.00;5042360;28;19969;-80
2020/12/11 01:57:47;;;;;;;;;;;;;;;-0.24;95.98;97605.41;5041271;28;20336;-80
2020/12/11 02:00:12;;;;;;;;;;;;;;;0.02;95.31;97614.38;5073804;28;19916;-80
2020/12/11 02:02:38;;;;;;;;;;;;;;;-0.14;95.42;97613.72;5061490;28;19971;-80
2020/12/11 02:05:06;;;;;;;;;;;;;;;-0.13;94.99;97616.22;5076465;28;19912;-80
2020/12/11 02:07:34;;;;;;;;;;;;;;;0.09;94.80;97610.91;5055165;28;19916;-80
2020/12/11 02:09:59;;;;;;;;;;;;;;;0.14;94.59;97614.22;5053882;28;19917;-80
2020/12/11 02:12:24;;;;;;;;;;;;;;;-0.04;95.22;97611.06;5069754;28;19921;-80
2020/12/11 02:14:50;;;;;;;;;;;;;;;-0.32;96.07;97610.56;5056354;28;20010;-80
2020/12/11 02:17:15;;;;;;;;;;;;;;;-0.35;96.35;97604.69;5038833;28;20015;-80
2020/12/11 02:19:40;;;;;;;;;;;;;;;-0.34;96.15;97598.75;5078595;28;19928;-80
2020/12/11 02:22:06;;;;;;;;;;;;;;;-0.11;95.27;97585.84;5062619;28;19966;-80
2020/12/11 02:24:32;;;;;;;;;;;;;;;-0.15;95.67;97587.56;5046514;28;19912;-80
2020/12/11 02:26:58;;;;;;;;;;;;;;;-0.17;95.31;97583.41;5053697;28;20415;-80
2020/12/11 02:29:23;;;;;;;;;;;;;;;-0.36;96.28;97577.72;5061502;28;19999;-80
2020/12/11 02:31:49;;;;;;;;;;;;;;;-0.37;96.90;97570.97;5074252;28;20015;-80
2020/12/11 02:34:14;;;;;;;;;;;;;;;-0.46;97.54;97575.28;5063954;28;19920;-80
2020/12/11 02:36:40;;;;;;;;;;;;;;;-0.32;96.63;97575.13;5071401;28;19919;-80
2020/12/11 02:39:05;;;;;;;;;;;;;;;-0.36;97.21;97572.66;5045625;28;19919;-80
2020/12/11 02:41:30;;;;;;;;;;;;;;;-0.53;97.22;97566.06;5040602;28;19920;-80
2020/12/11 02:43:56;;;;;;;;;;;;;;;-0.26;96.72;97564.09;5061941;28;19919;-80
2020/12/11 02:46:21;;;;;;;;;;;;;;;-0.17;96.19;97560.63;5045927;28;19947;-80
2020/12/11 02:48:46;;;;;;;;;;;;;;;-0.04;95.71;97555.38;5060465;28;20369;-79
2020/12/11 02:51:12;;;;;;;;;;;;;;;-0.08;95.52;97555.44;5059658;28;19948;-80
2020/12/11 02:53:37;;;;;;;;;;;;;;;-0.14;95.62;97548.75;5080803;28;19916;-80
2020/12/11 02:56:02;;;;;;;;;;;;;;;0.09;94.90;97545.09;5080771;28;19955;-80
2020/12/11 02:58:28;;;;;;;;;;;;;;;0.08;94.84;97535.84;5060613;28;20349;-80
2020/12/11 03:00:53;;;;;;;;;;;;;;;-0.29;96.58;97519.44;5061153;28;19920;-80
2020/12/11 03:03:18;;;;;;;;;;;;;;;-0.27;96.59;97519.44;5079216;28;19912;-80
2020/12/11 03:05:43;;;;;;;;;;;;;;;-0.29;96.72;97518.63;5078601;28;20307;-80
2020/12/11 03:08:09;;;;;;;;;;;;;;;-0.29;97.30;97509.31;5079975;28;19912;-80
2020/12/11 03:10:34;;;;;;;;;;;;;;;-0.22;96.83;97500.78;5061032;28;19935;-80
2020/12/11 03:13:00;;;;;;;;;;;;;;;-0.28;96.77;97495.81;5059343;28;20929;-80
2020/12/11 03:15:25;;;;;;;;;;;;;;;-0.29;97.12;97493.31;5059823;28;19919;-80
2020/12/11 03:17:50;;;;;;;;;;;;;;;-0.23;96.88;97493.22;5061861;28;19917;-80
2020/12/11 03:20:22;;;;;;;;;;;;;;;-0.14;96.58;97490.56;5062442;28;20434;-80
2020/12/11 03:22:51;;;;;;;;;;;;;;;-0.12;96.01;97485.50;5061004;28;20289;-80
2020/12/11 03:25:16;;;;;;;;;;;;;;;-0.10;96.38;97483.78;5077009;28;19923;-80
2020/12/11 03:27:41;;;;;;;;;;;;;;;-0.17;96.39;97483.03;5081271;28;20312;-80
2020/12/11 03:30:07;;;;;;;;;;;;;;;-0.17;96.29;97477.97;5060293;28;19912;-80
2020/12/11 03:32:32;;;;;;;;;;;;;;;-0.22;97.17;97482.25;5040659;28;19916;-80
2020/12/11 03:34:57;;;;;;;;;;;;;;;-0.18;96.81;97478.84;5058761;28;20296;-80
2020/12/11 03:37:23;;;;;;;;;;;;;;;-0.13;96.64;97479.59;5062465;28;19918;-80
2020/12/11 03:39:48;;;;;;;;;;;;;;;-0.13;96.59;97474.53;5061413;28;19928;-80
2020/12/11 03:42:13;;;;;;;;;;;;;;;-0.15;96.59;97481.31;5077775;28;19952;-80
2020/12/11 03:44:39;;;;;;;;;;;;;;;-0.05;96.53;97477.78;5078269;28;20377;-80
2020/12/11 03:47:04;;;;;;;;;;;;;;;0.09;96.01;97474.22;5059073;28;19916;-80
2020/12/11 03:49:29;;;;;;;;;;;;;;;0.08;96.09;97482.69;5078872;28;19978;-80
2020/12/11 03:51:54;;;;;;;;;;;;;;;-0.01;96.37;97478.59;5081157;28;19969;-80
2020/12/11 03:54:20;;;;;;;;;;;;;;;-0.23;96.90;97478.03;5078576;28;19916;-80
2020/12/11 03:56:48;;;;;;;;;;;;;;;-0.12;96.90;97482.97;5079522;28;20373;-80
2020/12/11 03:59:14;;;;;;;;;;;;;;;0.13;96.59;97481.75;5090216;28;20042;-80
2020/12/11 04:01:39;;;;;;;;;;;;;;;-0.01;96.49;97478.59;5081630;28;20003;-80
2020/12/11 04:04:05;;;;;;;;;;;;;;;-0.01;96.26;97476.06;5101263;28;19911;-80
2020/12/11 04:06:30;;;;;;;;;;;;;;;-0.06;96.70;97480.34;5082096;28;19919;-80
2020/12/11 04:08:55;;;;;;;;;;;;;;;-0.09;96.61;97481.25;5081823;28;20284;-80
2020/12/11 04:11:21;;;;;;;;;;;;;;;0.05;96.30;97477.69;5085744;28;19916;-80
2020/12/11 04:13:46;;;;;;;;;;;;;;;0.05;95.89;97477.69;5097988;28;19913;-80
2020/12/11 04:16:11;;;;;;;;;;;;;;;-0.02;95.93;97479.47;5064388;28;19919;-80
2020/12/11 04:18:36;;;;;;;;;;;;;;;0.02;96.29;97483.59;5099778;28;20063;-80
2020/12/11 04:21:02;;;;;;;;;;;;;;;0.01;95.81;97474.34;5097881;28;19920;-80
2020/12/11 04:23:27;;;;;;;;;;;;;;;-0.21;96.55;97458.63;5060051;28;20485;-80
2020/12/11 04:25:53;;;;;;;;;;;;;;;-0.19;96.70;97463.66;5099275;28;19916;-80
2020/12/11 04:28:18;;;;;;;;;;;;;;;-0.22;96.85;97467.06;5081080;28;19919;-80
2020/12/11 04:30:44;;;;;;;;;;;;;;;-0.14;96.59;97477.91;5097460;28;19920;-80
2020/12/11 04:33:09;;;;;;;;;;;;;;;-0.18;96.53;97470.38;5098794;28;19925;-80
2020/12/11 04:35:34;;;;;;;;;;;;;;;-0.15;96.45;97480.47;5077480;28;19924;-80
2020/12/11 04:38:00;;;;;;;;;;;;;;;-0.22;96.90;97485.63;5080055;28;19908;-80
2020/12/11 04:40:26;;;;;;;;;;;;;;;0.04;95.69;97493.69;5062753;28;19930;-80
2020/12/11 04:42:51;;;;;;;;;;;;;;;-0.05;95.97;97498.03;5078302;28;19912;-80
2020/12/11 04:45:17;;;;;;;;;;;;;;;-0.20;96.47;97503.31;5081813;28;19927;-80
2020/12/11 04:47:42;;;;;;;;;;;;;;;-0.23;96.75;97496.59;5094534;28;19977;-80
2020/12/11 04:50:08;;;;;;;;;;;;;;;-0.18;97.12;97491.47;5077709;28;20386;-80
2020/12/11 04:52:35;;;;;;;;;;;;;;;-0.04;95.74;97484.53;5095977;28;19920;-80
2020/12/11 04:55:00;;;;;;;;;;;;;;;-0.12;96.47;97476.19;5063913;28;20547;-80
2020/12/11 04:57:26;;;;;;;;;;;;;;;-0.12;96.42;97470.31;5097382;28;20018;-80
2020/12/11 04:59:51;;;;;;;;;;;;;;;0.10;95.37;97461.56;5078521;28;19920;-80
2020/12/11 05:02:17;;;;;;;;;;;;;;;0.06;95.24;97443.91;5079424;28;19969;-82
2020/12/11 05:04:43;;;;;;;;;;;;;;;-0.27;96.60;97435.97;5096176;28;20301;-81
2020/12/11 05:07:09;;;;;;;;;;;;;;;-0.13;96.68;97428.16;5097545;28;20483;-80
2020/12/11 05:09:34;;;;;;;;;;;;;;;-0.19;96.82;97431.59;5079366;28;19977;-81
2020/12/11 05:11:59;;;;;;;;;;;;;;;-0.15;96.56;97424.81;5062785;28;19916;-80
2020/12/11 05:14:26;;;;;;;;;;;;;;;-0.16;96.55;97413.88;5077842;28;20373;-80
2020/12/11 05:17:01;;;;;;;;;;;;;;;-0.24;96.80;97400.50;5082254;28;19966;-81
2020/12/11 05:19:27;;;;;;;;;;;;;;;-0.17;97.00;97397.00;5095460;28;19927;-80
2020/12/11 05:21:53;;;;;;;;;;;;;;;-0.16;96.76;97398.69;5098255;28;19923;-80
2020/12/11 05:24:18;;;;;;;;;;;;;;;-0.17;96.97;97394.47;5095897;28;19996;-80
2020/12/11 05:26:44;;;;;;;;;;;;;;;0.01;96.41;97390.00;5061969;28;20468;-80
2020/12/11 05:29:09;;;;;;;;;;;;;;;-0.10;96.38;97393.50;5080107;28;19916;-80
2020/12/11 05:31:34;;;;;;;;;;;;;;;-0.23;97.17;97394.56;5100294;28;19916;-80
2020/12/11 05:34:07;;;;;;;;;;;;;;;-0.17;97.04;97386.88;5076849;28;20357;-81
2020/12/11 05:36:42;;;;;;;;;;;;;;;-0.12;96.86;97380.06;5079006;28;19916;-80
2020/12/11 05:39:08;;;;;;;;;;;;;;;-0.22;97.17;97368.41;5096563;28;19969;-80
2020/12/11 05:41:33;;;;;;;;;;;;;;;-0.24;97.17;97360.00;5094041;28;19916;-80
2020/12/11 05:43:59;;;;;;;;;;;;;;;-0.20;97.26;97356.59;5097719;28;20293;-80
2020/12/11 05:46:43;;;;;;;;;;;;;;;-0.18;97.01;97354.88;5078501;28;19916;-80
2020/12/11 05:49:21;;;;;;;;;;;;;;;-0.16;97.25;97348.09;5080009;28;20446;-80
2020/12/11 05:51:46;;;;;;;;;;;;;;;-0.14;97.12;97335.41;5097006;28;20196;-80
2020/12/11 05:54:11;;;;;;;;;;;;;;;-0.20;97.29;97341.41;5077703;28;20014;-80
2020/12/11 05:56:36;;;;;;;;;;;;;;;-0.16;97.16;97340.50;5062421;28;19912;-80
2020/12/11 05:59:02;;;;;;;;;;;;;;;-0.13;96.96;97334.56;5096049;28;19947;-80
2020/12/11 06:01:27;;;;;;;;;;;;;;;-0.10;96.98;97319.31;5080113;28;19951;-80
2020/12/11 06:03:53;;;;;;;;;;;;;;;-0.05;96.56;97320.88;5095433;28;20287;-80
2020/12/11 06:06:18;;;;;;;;;;;;;;;0.01;95.93;97331.78;5077675;28;20003;-80
2020/12/11 06:08:44;;;;;;;;;;;;;;;-0.12;96.63;97336.22;5077660;28;19927;-80
2020/12/11 06:11:15;;;;;;;;;;;;;;;-0.03;96.48;97329.28;5079754;28;19916;-81
2020/12/11 06:13:41;;;;;;;;;;;;;;;-0.01;96.05;97326.75;5063539;28;19931;-81
2020/12/11 06:16:07;;;;;;;;;;;;;;;0.06;95.87;97328.31;5093254;28;19961;-80
2020/12/11 06:18:32;;;;;;;;;;;;;;;0.04;95.97;97321.59;5061685;28;20416;-81
2020/12/11 06:20:58;;;;;;;;;;;;;;;-0.08;96.32;97313.38;5077899;28;19916;-80
2020/12/11 06:23:27;;;;;;;;;;;;;;;-0.01;96.05;97304.81;5064393;28;19916;-81
2020/12/11 06:25:56;;;;;;;;;;;;;;;0.15;95.72;97297.78;5081199;28;19965;-81
2020/12/11 06:28:41;;;;;;;;;;;;;;;0.04;95.37;97303.91;5097333;28;19958;-81
2020/12/11 06:31:07;;;;;;;;;;;;;;;0.01;95.81;97296.38;5071153;28;20002;-81
2020/12/11 06:33:33;;;;;;;;;;;;;;;-0.02;95.61;97280.38;5078716;28;19928;-80
2020/12/11 06:35:59;;;;;;;;;;;;;;;-0.04;95.65;97273.66;5080624;28;19916;-80
2020/12/11 06:38:57;;;;;;;;;;;;;;;-0.13;96.33;97256.13;5096612;28;19927;-80
2020/12/11 06:41:28;;;;;;;;;;;;;;;-0.09;96.21;97255.19;5066532;28;20522;-80
2020/12/11 06:43:54;;;;;;;;;;;;;;;-0.06;95.90;97261.03;5093800;28;19916;-80
2020/12/11 06:46:21;;;;;;;;;;;;;;;0.06;95.27;97259.16;5097994;28;19923;-80
2020/12/11 06:49:05;;;;;;;;;;;;;;;-0.08;95.92;97257.69;5067865;28;19960;-80
2020/12/11 06:51:31;;;;;;;;;;;;;;;0.05;95.43;97254.97;5078046;28;19912;-80
2020/12/11 06:53:56;;;;;;;;;;;;;;;0.04;94.85;97253.28;5078169;28;19912;-80
2020/12/11 06:56:41;;;;;;;;;;;;;;;0.06;95.12;97269.28;5082323;28;20371;-81
2020/12/11 06:59:19;;;;;;;;;;;;;;;0.17;94.87;97259.78;5081885;28;20027;-81
2020/12/11 07:01:45;;;;;;;;;;;;;;;0.05;95.19;97260.03;5062564;28;19955;-80
2020/12/11 07:04:10;;;;;;;;;;;;;;;-0.03;95.58;97247.50;5055003;28;19916;-80
2020/12/11 07:06:35;;;;;;;;;;;;;;;0.02;95.64;97244.88;5078416;28;19916;-80
2020/12/11 07:09:04;;;;;;;;;;;;;;;0.06;95.35;97249.03;5080934;28;19977;-80
2020/12/11 07:11:29;;;;;;;;;;;;;;;0.00;95.49;97244.94;5062417;28;19923;-80
2020/12/11 07:13:55;;;;;;;;;;;;;;;0.06;95.07;97246.50;5060938;28;19920;-80
2020/12/11 07:16:20;;;;;;;;;;;;;;;0.01;95.16;97238.16;5061573;28;20434;-79
2020/12/11 07:18:46;;;;;;;;;;;;;;;0.05;94.67;97234.72;5055999;28;19919;-80
2020/12/11 07:21:12;;;;;;;;;;;;;;;0.10;94.72;97243.06;5064968;28;19965;-79
2020/12/11 07:23:37;;;;;;;;;;;;;;;0.12;94.54;97243.88;5063270;28;19912;-79
2020/12/11 07:26:03;;;;;;;;;;;;;;;0.03;94.68;97246.56;5064359;28;19942;-79
2020/12/11 07:28:28;;;;;;;;;;;;;;;0.06;94.46;97238.91;5064631;28;19916;-78
2020/12/11 07:30:53;;;;;;;;;;;;;;;0.10;94.30;97238.81;5084380;28;19923;-78
2020/12/11 07:33:19;;;;;;;;;;;;;;;0.21;94.06;97236.09;5083619;28;19916;-78
2020/12/11 07:35:45;;;;;;;;;;;;;;;0.10;94.27;97228.69;5064891;28;19948;-79
2020/12/11 07:38:10;;;;;;;;;;;;;;;0.08;94.66;97225.34;5077931;28;20285;-78
2020/12/11 07:40:35;;;;;;;;;;;;;;;0.04;94.29;97227.97;5078391;28;19916;-78
2020/12/11 07:43:02;;;;;;;;;;;;;;;0.09;94.35;97221.13;5076211;28;20293;-78
2020/12/11 07:45:33;;;;;;;;;;;;;;;0.08;94.56;97214.41;5062948;28;20015;-79
2020/12/11 07:48:02;;;;;;;;;;;;;;;0.08;94.38;97214.41;5084695;28;19980;-79
2020/12/11 07:50:28;;;;;;;;;;;;;;;0.17;94.00;97216.75;5082963;28;19923;-79
2020/12/11 07:52:54;;;;;;;;;;;;;;;0.09;94.50;97196.66;5105199;28;19915;-79
2020/12/11 07:55:20;;;;;;;;;;;;;;;0.18;94.24;97200.69;5085151;28;19912;-79
2020/12/11 07:57:50;;;;;;;;;;;;;;;0.27;94.08;97187.84;5100025;28;19912;-79
2020/12/11 08:00:15;;;;;;;;;;;;;;;0.22;93.82;97181.22;5082998;28;19920;-79
2020/12/11 08:02:40;;;;;;;;;;;;;;;0.29;93.57;97186.13;5100945;28;19922;-79
2020/12/11 08:05:06;;;;;;;;;;;;;;;0.32;93.25;97181.03;5097641;28;19951;-79
2020/12/11 08:07:31;;;;;;;;;;;;;;;0.31;93.15;97181.88;5105182;28;20280;-79
2020/12/11 08:10:10;;;;;;;;;;;;;;;0.36;93.33;97185.13;5104384;28;19938;-79
2020/12/11 08:12:35;;;;;;;;;;;;;;;0.48;93.13;97183.22;5102335;28;19978;-79
2020/12/11 08:15:00;;;;;;;;;;;;;;;0.39;93.31;97185.09;5102871;28;19915;-78
2020/12/11 08:17:26;;;;;;;;;;;;;;;0.40;93.56;97179.16;5104445;28;19911;-78
2020/12/11 08:20:01;;;;;;;;;;;;;;;0.54;92.81;97185.63;5085409;28;20026;-79
2020/12/11 08:22:31;;;;;;;;;;;;;;;0.46;93.81;97169.75;5057242;28;20289;-79
2020/12/11 08:24:56;;;;;;;;;;;;;;;0.50;93.47;97181.47;5100155;28;20015;-79
2020/12/11 08:27:24;;;;;;;;;;;;;;;0.57;93.50;97171.22;5102280;28;19982;-78
2020/12/11 08:30:09;;;;;;;;;;;;;;;0.54;93.65;97170.44;5099839;28;19921;-79
2020/12/11 08:32:34;;;;;;;;;;;;;;;0.56;93.38;97163.63;5100603;28;19911;-79
2020/12/11 08:34:59;;;;;;;;;;;;;;;0.41;94.69;97152.97;5082056;28;19973;-79
2020/12/11 08:37:25;;;;;;;;;;;;;;;0.44;94.82;97141.94;5082042;28;19920;-79
2020/12/11 08:39:50;;;;;;;;;;;;;;;0.48;94.46;97132.56;5080965;28;20010;-78
2020/12/11 08:42:31;;;;;;;;;;;;;;;0.56;94.70;97143.38;5101849;28;20426;-79
2020/12/11 08:52:33;;;;;;;;;;;;;;;0.81;94.10;97131.81;5104726;28;20384;-78
2020/12/11 08:54:59;;;;;;;;;;;;;;;0.96;93.82;97128.09;5105721;28;19915;-79
2020/12/11 08:57:28;;;;;;;;;;;;;;;0.98;93.70;97123.84;5084960;28;19920;-80
2020/12/11 08:59:53;;;;;;;;;;;;;;;1.07;93.85;97111.78;5079949;28;19920;-80
2020/12/11 09:02:19;;;;;;;;;;;;;;;1.09;93.63;97110.88;5082343;28;19919;-79
2020/12/11 09:04:44;;;;;;;;;;;;;;;1.07;93.66;97102.47;5096129;28;19924;-79
2020/12/11 09:07:11;;;;;;;;;;;;;;;1.26;93.46;97107.94;5097582;28;19994;-78
2020/12/11 09:09:37;;;;;;;;;;;;;;;1.22;93.59;97101.28;5083852;28;19916;-79
2020/12/11 09:12:02;;;;;;;;;;;;;;;1.29;93.54;97101.94;5097633;28;20496;-80
2020/12/11 09:14:27;;;;;;;;;;;;;;;1.22;93.51;97094.50;5081340;28;19923;-79
2020/12/11 09:16:53;;;;;;;;;;;;;;;1.36;93.28;97080.63;5060818;28;19998;-79
2020/12/11 09:19:19;;;;;;;;;;;;;;;1.32;93.57;97072.25;5098301;28;19912;-79
2020/12/11 09:21:44;;;;;;;;;;;;;;;1.43;93.00;97085.50;5064122;28;19950;-79
2020/12/11 09:24:10;;;;;;;;;;;;;;;1.61;92.44;97096.03;5096508;28;19927;-79
2020/12/11 09:26:35;;;;;;;;;;;;;;;1.65;92.69;97085.75;5063844;28;19927;-79
2020/12/11 09:29:12;;;;;;;;;;;;;;;1.50;92.87;97081.09;5080023;28;19916;-79
2020/12/11 09:31:38;;;;;;;;;;;;;;;1.59;92.99;97090.16;5083644;28;19940;-79
2020/12/11 09:34:03;;;;;;;;;;;;;;;1.50;93.19;97073.47;5081654;28;19912;-79
2020/12/11 09:36:29;;;;;;;;;;;;;;;1.61;93.27;97081.63;5081045;28;19927;-80
2020/12/11 09:38:54;;;;;;;;;;;;;;;1.68;92.70;97078.06;5069006;28;20445;-80
2020/12/11 09:41:27;;;;;;;;;;;;;;;1.73;92.73;97072.84;5084623;28;19924;-79
2020/12/11 09:44:28;;;;;;;;;;;;;;;1.59;93.27;97085.91;5092796;28;19915;-79
2020/12/11 09:49:39;;;;;;;;;;;;;;;1.60;92.74;97086.78;5099812;28;19946;-80
2020/12/11 09:52:20;;;;;;;;;;;;;;;1.72;92.23;97093.22;5083021;28;19955;-81
2020/12/11 09:54:46;;;;;;;;;;;;;;;1.66;93.06;97096.72;5066041;28;19912;-79
2020/12/11 09:57:11;;;;;;;;;;;;;;;1.70;92.97;97100.03;5097011;28;19912;-80
2020/12/11 09:59:52;;;;;;;;;;;;;;;1.90;92.14;97087.63;5065183;28;19923;-80
2020/12/11 10:04:42;;;;;;;;;;;;;;;1.76;92.67;97082.94;5085226;28;20058;-80
2020/12/11 10:07:08;;;;;;;;;;;;;;;1.88;92.06;97077.50;5065684;28;19916;-80
2020/12/11 10:09:33;;;;;;;;;;;;;;;1.81;92.52;97077.72;5086222;28;19916;-80
2020/12/11 10:12:01;;;;;;;;;;;;;;;1.68;92.65;97075.50;5082778;28;19916;-80
2020/12/11 10:14:39;;;;;;;;;;;;;;;1.72;92.69;97066.13;5082550;28;20010;-80
2020/12/11 10:17:04;;;;;;;;;;;;;;;1.76;93.06;97071.97;5100348;28;20144;-80
2020/12/11 10:19:29;;;;;;;;;;;;;;;1.78;92.92;97075.25;5081647;28;19908;-80
2020/12/11 10:21:55;;;;;;;;;;;;;;;1.83;92.72;97073.44;5084549;28;19920;-80
2020/12/11 10:24:20;;;;;;;;;;;;;;;1.81;93.01;97065.03;5069073;28;19916;-80
2020/12/11 10:26:46;;;;;;;;;;;;;;;1.86;92.77;97063.19;5086516;28;19916;-81
2020/12/11 10:29:11;;;;;;;;;;;;;;;1.89;92.60;97065.63;5090638;28;19948;-81
2020/12/11 10:31:41;;;;;;;;;;;;;;;1.95;92.32;97052.78;5091346;28;19934;-80
2020/12/11 10:34:06;;;;;;;;;;;;;;;2.22;92.07;97068.91;5076859;28;19940;-79
2020/12/11 10:36:32;;;;;;;;;;;;;;;2.20;91.97;97062.22;5107932;28;20353;-80
2020/12/11 10:38:58;;;;;;;;;;;;;;;2.30;91.93;97059.38;5091895;28;19916;-80
2020/12/11 10:41:23;;;;;;;;;;;;;;;2.34;91.44;97044.84;5109132;28;19926;-80
2020/12/11 10:43:49;;;;;;;;;;;;;;;2.54;91.47;97040.88;5075538;28;19962;-80
2020/12/11 10:46:14;;;;;;;;;;;;;;;2.37;91.36;97033.75;5106944;28;19972;-80
2020/12/11 10:48:40;;;;;;;;;;;;;;;2.44;91.99;97028.47;5107171;28;19969;-80
2020/12/11 10:51:05;;;;;;;;;;;;;;;2.28;91.71;97015.41;5109499;28;19923;-80
2020/12/11 10:53:30;;;;;;;;;;;;;;;2.32;91.65;97023.75;5075622;28;19912;-80
2020/12/11 10:55:56;;;;;;;;;;;;;;;2.52;91.25;97012.97;5092678;28;20293;-79
2020/12/11 10:58:21;;;;;;;;;;;;;;;2.56;91.05;97006.09;5095238;28;20422;-80
2020/12/11 11:00:46;;;;;;;;;;;;;;;2.58;91.64;97007.69;5093911;28;19962;-80
2020/12/11 11:03:12;;;;;;;;;;;;;;;2.61;91.29;97001.69;5110255;28;19918;-79
2020/12/11 11:05:38;;;;;;;;;;;;;;;2.54;91.54;97000.22;5111743;28;20435;-80
2020/12/11 11:08:03;;;;;;;;;;;;;;;2.78;91.46;96990.94;5093738;28;20024;-80
2020/12/11 11:10:39;;;;;;;;;;;;;;;2.82;90.17;96987.44;5111818;28;19916;-80
2020/12/11 11:15:51;;;;;;;;;;;;;;;2.83;90.64;96979.78;5110990;28;20399;-80
2020/12/11 11:28:59;;;;;;;;;;;;;;;2.64;91.35;96976.16;5095427;28;19911;-79
2020/12/11 11:31:24;;;;;;;;;;;;;;;2.78;91.39;96976.53;5110710;28;20127;-78
2020/12/11 11:33:49;;;;;;;;;;;;;;;2.85;91.38;96975.47;5092980;28;19911;-79
2020/12/11 11:36:14;;;;;;;;;;;;;;;2.95;91.52;96975.16;5109153;28;20689;-78
2020/12/11 11:38:40;;;;;;;;;;;;;;;2.98;90.54;96972.50;5110882;28;19918;-78
2020/12/11 11:41:05;;;;;;;;;;;;;;;3.05;90.53;96971.41;5110086;28;19919;-79
2020/12/11 11:46:14;;;;;;;;;;;;;;;3.14;90.81;96960.91;5109961;28;19981;-80
2020/12/11 11:48:42;;;;;;;;;;;;;;;3.13;90.82;96964.34;5112240;28;19919;-79
2020/12/11 11:51:22;;;;;;;;;;;;;;;3.25;90.35;96948.63;5075509;28;19916;-77
2020/12/11 11:53:47;;;;;;;;;;;;;;;3.41;90.09;96945.56;5111263;28;19952;-79
2020/12/11 11:56:12;;;;;;;;;;;;;;;3.44;89.46;96937.78;5107896;28;19915;-80
2020/12/11 11:58:38;;;;;;;;;;;;;;;3.49;89.53;96957.13;5092485;28;19972;-80
2020/12/11 12:01:03;;;;;;;;;;;;;;;3.45;89.27;96942.00;5108821;28;20517;-80
2020/12/11 12:03:29;;;;;;;;;;;;;;;3.39;89.01;96940.50;5109602;28;19923;-79
2020/12/11 12:05:55;;;;;;;;;;;;;;;3.54;89.60;96945.03;5091373;28;19916;-79
2020/12/11 12:08:20;;;;;;;;;;;;;;;3.62;89.84;96934.56;5094130;28;19945;-80
2020/12/11 12:10:46;;;;;;;;;;;;;;;3.65;88.64;96939.56;5075079;28;19919;-79
2020/12/11 12:13:11;;;;;;;;;;;;;;;3.56;88.31;96939.91;5109342;28;19922;-79
2020/12/11 12:15:37;;;;;;;;;;;;;;;3.62;88.33;96936.28;5091041;28;19916;-79
2020/12/11 12:18:06;;;;;;;;;;;;;;;3.62;89.61;96932.03;5090998;28;19911;-80
2020/12/11 12:31:02;;;;;;;;;;;;;;;3.66;88.81;96904.75;5103474;28;19916;-78
2020/12/11 12:43:52;;;;;;;;;;;;;;;3.55;90.66;96892.41;5083702;28;20955;-79
2020/12/11 12:46:18;;;;;;;;;;;;;;;3.45;90.02;96884.31;5082430;28;19915;-79
2020/12/11 12:48:43;;;;;;;;;;;;;;;3.33;89.54;96897.47;5090599;28;19928;-79
2020/12/11 12:51:08;;;;;;;;;;;;;;;3.34;89.85;96892.34;5084926;28;19983;-79
2020/12/11 12:53:36;;;;;;;;;;;;;;;3.23;91.01;96893.63;5086080;28;19916;-79
2020/12/11 12:58:45;;;;;;;;;;;;;;;3.26;91.15;96871.47;5085843;28;19927;-79
2020/12/11 13:01:18;;;;;;;;;;;;;;;3.17;91.28;96876.88;5083743;28;19921;-79
2020/12/11 13:06:27;;;;;;;;;;;;;;;3.18;91.31;96873.44;5085788;28;19927;-79
2020/12/11 13:08:53;;;;;;;;;;;;;;;3.19;91.26;96870.00;5066684;28;19916;-79
2020/12/11 13:11:18;;;;;;;;;;;;;;;3.21;91.53;96859.78;5063893;28;19916;-80
2020/12/11 13:13:43;;;;;;;;;;;;;;;3.11;91.87;96854.22;5061831;28;19947;-81
2020/12/11 13:16:09;;;;;;;;;;;;;;;3.15;91.24;96853.22;5082398;28;19917;-79
2020/12/11 13:19:25;;;;;;;;;;;;;;;3.13;92.52;96852.44;5080160;28;19979;-80
2020/12/11 13:21:34;;;;;;;;;;;;;;;3.17;91.54;96846.38;5063181;28;19920;-79
2020/12/11 13:26:54;;;;;;;;;;;;;;;3.14;91.78;96846.47;5067413;28;20510;-80
2020/12/11 13:29:20;;;;;;;;;;;;;;;3.11;92.31;96856.75;5081792;28;19920;-80
2020/12/11 13:31:45;;;;;;;;;;;;;;;3.06;92.06;96858.66;5061992;28;20331;-79
2020/12/11 13:34:11;;;;;;;;;;;;;;;3.02;91.59;96852.00;5070598;28;19938;-79
2020/12/11 13:36:36;;;;;;;;;;;;;;;3.04;92.14;96865.50;5061308;28;20568;-80
2020/12/11 13:39:03;;;;;;;;;;;;;;;3.07;91.73;96858.56;5064315;28;19962;-79
2020/12/11 13:41:28;;;;;;;;;;;;;;;3.12;91.91;96858.41;5064864;28;19920;-79
2020/12/11 13:43:53;;;;;;;;;;;;;;;3.18;91.69;96845.47;5079877;28;19920;-79
2020/12/11 13:46:19;;;;;;;;;;;;;;;3.04;91.97;96842.63;5060909;28;19967;-79
2020/12/11 13:48:44;;;;;;;;;;;;;;;3.07;92.67;96847.56;5061850;28;19924;-79